Time;durP1;ratioP1;P1;durP2;ratioP2;P2;SDS_P1;SDS_P2;PMS_P1;PMS_P2;Temp;Humidity;BMP_temperature;BMP_pressure;BME280_temperature;BME280_humidity;BME280_pressure;Samples;Min_cycle;Max_cycle;Signal;HPM_P1;HPM_P2
2022/08/10 00:00:25;;;;;;;;;;;19.50;91.90;;;;;;5125071;27;19931;-87
2022/08/10 00:03:26;;;;;;;;;;;19.00;91.90;;;;;;5145282;27;19923;-87
2022/08/10 00:07:37;;;;;;;;;;;19.20;92.10;;;;;;5159550;27;19931;-88
2022/08/10 00:09:59;;;;;;;;;;;19.10;92.30;;;;;;5136779;27;19929;-86
2022/08/10 00:16:52;;;;;;;;;;;16.90;92.40;;;;;;5073197;28;19931;-87
2022/08/10 00:19:56;;;;;;;;;;;19.50;93.30;;;;;;5071822;28;20331;-88
2022/08/10 00:22:46;;;;;;;;;;;18.60;93.20;;;;;;5157147;27;19927;-88
2022/08/10 00:30:09;;;;;;;;;;;18.20;93.20;;;;;;5156991;27;19923;-87
2022/08/10 00:32:45;;;;;;;;;;;17.60;93.60;;;;;;5157027;27;20033;-87
2022/08/10 00:43:24;;;;;;;;;;;19.70;94.50;;;;;;5069771;27;19950;-88
2022/08/10 00:45:58;;;;;;;;;;;18.40;94.30;;;;;;5102459;27;19963;-88
2022/08/10 00:48:49;;;;;;;;;;;17.30;94.20;;;;;;5121090;27;19923;-88
2022/08/10 00:52:23;;;;;;;;;;;16.60;94.70;;;;;;5145862;27;19919;-88
2022/08/10 00:55:09;;;;;;;;;;;18.40;95.00;;;;;;5099903;27;19912;-88
2022/08/10 00:58:16;;;;;;;;;;;18.00;95.70;;;;;;5117051;27;19923;-88
2022/08/10 01:01:04;;;;;;;;;;;16.30;93.90;;;;;;5120507;27;19924;-87
2022/08/10 01:04:15;;;;;;;;;;;17.70;96.00;;;;;;5117644;27;19929;-85
2022/08/10 01:07:26;;;;;;;;;;;17.90;95.00;;;;;;5148928;27;19931;-86
2022/08/10 01:10:03;;;;;;;;;;;17.40;94.90;;;;;;5116729;27;19923;-88
2022/08/10 01:16:18;;;;;;;;;;;18.00;95.60;;;;;;5074008;28;19925;-88
2022/08/10 01:19:42;;;;;;;;;;;17.60;94.80;;;;;;5011768;28;19913;-88
2022/08/10 01:23:47;;;;;;;;;;;18.30;95.60;;;;;;5012484;28;19913;-89
2022/08/10 01:26:55;;;;;;;;;;;17.00;95.00;;;;;;5021886;28;19926;-87
2022/08/10 01:30:37;;;;;;;;;;;19.30;95.90;;;;;;4996260;28;19924;-88
2022/08/10 01:34:00;;;;;;;;;;;17.70;96.60;;;;;;5020840;28;19926;-88
2022/08/10 01:40:43;;;;;;;;;;;17.20;96.30;;;;;;5014323;28;19931;-86
2022/08/10 01:43:18;;;;;;;;;;;17.40;95.80;;;;;;5054001;28;19928;-87
2022/08/10 01:58:22;;;;;;;;;;;17.40;96.10;;;;;;5062389;28;19944;-88
2022/08/10 02:04:54;;;;;;;;;;;17.10;96.80;;;;;;5039033;28;19930;-88
2022/08/10 02:08:27;;;;;;;;;;;;;;;;;;;;;
2022/08/10 02:12:24;;;;;;;;;;;17.30;96.80;;;;;;5113057;28;19924;-87
2022/08/10 02:18:35;;;;;;;;;;;16.90;97.70;;;;;;5077042;28;20019;-87
2022/08/10 02:21:31;;;;;;;;;;;;;;;;;;;;;
2022/08/10 02:24:29;;;;;;;;;;;16.70;97.00;;;;;;5105576;28;19928;-88
2022/08/10 02:27:34;;;;;;;;;;;16.70;97.70;;;;;;5091791;28;19925;-87
2022/08/10 02:30:15;;;;;;;;;;;16.30;96.90;;;;;;5075275;28;19928;-87
2022/08/10 02:32:45;;;;;;;;;;;18.90;97.70;;;;;;5074426;28;19935;-88
2022/08/10 02:35:26;;;;;;;;;;;17.40;97.70;;;;;;5060175;28;19922;-88
2022/08/10 02:38:29;;;;;;;;;;;16.60;96.90;;;;;;5065989;28;19924;-87
2022/08/10 02:41:55;;;;;;;;;;;;;;;;;;;;;
2022/08/10 02:45:16;;;;;;;;;;;16.90;97.10;;;;;;5061328;28;19934;-87
2022/08/10 02:48:40;;;;;;;;;;;17.30;97.30;;;;;;5084262;28;19924;-87
2022/08/10 02:51:26;;;;;;;;;;;15.90;97.00;;;;;;5075184;28;19928;-88
2022/08/10 02:54:22;;;;;;;;;;;16.40;97.30;;;;;;5076731;28;19924;-87
2022/08/10 02:57:03;;;;;;;;;;;16.50;98.50;;;;;;5077508;28;19995;-87
2022/08/10 02:59:39;;;;;;;;;;;17.20;97.70;;;;;;5055771;28;19932;-87
2022/08/10 03:02:10;;;;;;;;;;;16.80;98.10;;;;;;5071665;28;19925;-87
2022/08/10 03:08:32;;;;;;;;;;;16.80;97.70;;;;;;5053048;28;19939;-87
2022/08/10 03:11:03;;;;;;;;;;;16.40;97.80;;;;;;5076829;28;19919;-87
2022/08/10 03:13:33;;;;;;;;;;;16.30;98.50;;;;;;5074098;28;19924;-86
2022/08/10 03:16:25;;;;;;;;;;;14.60;97.20;;;;;;5105541;28;20006;-88
2022/08/10 03:23:20;;;;;;;;;;;16.30;97.80;;;;;;4987417;28;19932;-87
2022/08/10 03:25:50;;;;;;;;;;;14.90;98.50;;;;;;5065486;28;19928;-87
2022/08/10 03:28:28;;;;;;;;;;;16.40;98.90;;;;;;5071012;28;19935;-87
2022/08/10 03:31:08;;;;;;;;;;;17.80;98.70;;;;;;5071214;28;19925;-88
2022/08/10 03:34:04;;;;;;;;;;;16.90;99.00;;;;;;5063751;28;19936;-88
2022/08/10 03:37:14;;;;;;;;;;;16.50;99.10;;;;;;5073590;28;19931;-86
2022/08/10 03:40:56;;;;;;;;;;;16.40;98.60;;;;;;5035563;28;19952;-89
2022/08/10 03:43:44;;;;;;;;;;;16.70;98.70;;;;;;5014243;28;19963;-87
2022/08/10 03:47:43;;;;;;;;;;;;;;;;;;;;;
2022/08/10 03:50:44;;;;;;;;;;;16.50;99.90;;;;;;5039862;28;19929;-87
2022/08/10 03:54:03;;;;;;;;;;;15.40;98.30;;;;;;5041976;28;19935;-88
2022/08/10 03:57:16;;;;;;;;;;;16.30;98.70;;;;;;5040451;28;19935;-87
2022/08/10 04:00:10;;;;;;;;;;;16.20;98.80;;;;;;5004900;28;19941;-86
2022/08/10 04:03:16;;;;;;;;;;;16.60;99.70;;;;;;5057426;28;19933;-87
2022/08/10 04:06:56;;;;;;;;;;;;;;;;;;;;;
2022/08/10 04:13:50;;;;;;;;;;;16.90;99.30;;;;;;5024073;28;19964;-87
2022/08/10 04:16:53;;;;;;;;;;;14.60;99.00;;;;;;5028144;28;19924;-87
2022/08/10 04:20:06;;;;;;;;;;;16.00;99.40;;;;;;5060256;28;19924;-86
2022/08/10 04:23:47;;;;;;;;;;;14.60;99.90;;;;;;5063962;28;19931;-86
2022/08/10 04:26:39;;;;;;;;;;;15.80;99.90;;;;;;5043332;28;19936;-87
2022/08/10 04:30:39;;;;;;;;;;;15.90;99.90;;;;;;5078726;28;19929;-88
2022/08/10 04:33:48;;;;;;;;;;;17.20;99.90;;;;;;5045170;28;19934;-87
2022/08/10 04:36:23;;;;;;;;;;;14.00;99.90;;;;;;5075700;28;19930;-87
2022/08/10 04:39:08;;;;;;;;;;;15.70;99.50;;;;;;5042969;28;19923;-87
2022/08/10 04:41:45;;;;;;;;;;;14.30;99.10;;;;;;5075726;28;19931;-87
2022/08/10 04:44:47;;;;;;;;;;;16.20;99.80;;;;;;5057057;28;19924;-87
2022/08/10 04:48:00;;;;;;;;;;;15.60;99.30;;;;;;5062048;28;19928;-87
2022/08/10 04:52:11;;;;;;;;;;;16.30;99.80;;;;;;5040616;28;19936;-87
2022/08/10 04:54:37;;;;;;;;;;;15.90;99.70;;;;;;5054168;28;19943;-86
2022/08/10 04:57:11;;;;;;;;;;;14.60;99.40;;;;;;5036567;28;19929;-87
2022/08/10 04:59:53;;;;;;;;;;;15.90;99.90;;;;;;5036717;28;19948;-87
2022/08/10 05:02:32;;;;;;;;;;;15.70;99.90;;;;;;5020347;28;19935;-87
2022/08/10 05:06:11;;;;;;;;;;;16.40;99.90;;;;;;5042054;28;19923;-87
2022/08/10 05:09:26;;;;;;;;;;;13.50;99.70;;;;;;5067018;28;19924;-87
2022/08/10 05:12:20;;;;;;;;;;;16.20;99.90;;;;;;5069509;28;19925;-86
2022/08/10 05:15:47;;;;;;;;;;;;;;;;;;;;;
2022/08/10 05:19:04;;;;;;;;;;;;;;;;;;;;;
2022/08/10 05:22:10;;;;;;;;;;;;;;;;;;;;;
2022/08/10 05:25:47;;;;;;;;;;;;;;;;;;;;;
2022/08/10 05:28:23;;;;;;;;;;;16.30;99.90;;;;;;5092652;28;19924;-86
2022/08/10 05:32:07;;;;;;;;;;;;;;;;;;;;;
2022/08/10 05:35:40;;;;;;;;;;;17.60;99.90;;;;;;5093147;28;19930;-86
2022/08/10 05:39:10;;;;;;;;;;;;;;;;;;;;;
2022/08/10 05:42:52;;;;;;;;;;;16.40;99.90;;;;;;5075044;28;19935;-86
2022/08/10 05:50:29;;;;;;;;;;;16.80;99.90;;;;;;5064272;28;19911;-86
2022/08/10 05:57:41;;;;;;;;;;;17.40;99.90;;;;;;5034835;28;20425;-86
2022/08/10 06:00:45;;;;;;;;;;;18.70;99.90;;;;;;5069232;28;19929;-86
2022/08/10 06:03:57;;;;;;;;;;;16.70;99.90;;;;;;5097617;28;19925;-86
2022/08/10 06:06:34;;;;;;;;;;;17.60;99.90;;;;;;5088253;28;19955;-86
2022/08/10 06:12:30;;;;;;;;;;;18.90;99.90;;;;;;5105746;28;19924;-86
2022/08/10 06:15:13;;;;;;;;;;;17.40;99.90;;;;;;5069023;28;20248;-87
2022/08/10 06:22:47;;;;;;;;;;;17.60;99.90;;;;;;5067255;28;19929;-86
2022/08/10 06:25:44;;;;;;;;;;;17.60;99.90;;;;;;5057666;28;19931;-87
2022/08/10 06:29:09;;;;;;;;;;;17.70;99.90;;;;;;5075561;28;20193;-87
2022/08/10 06:32:01;;;;;;;;;;;16.90;99.90;;;;;;5056416;28;19928;-87
2022/08/10 06:35:15;;;;;;;;;;;13.90;99.80;;;;;;5076590;28;19935;-87
2022/08/10 06:37:52;;;;;;;;;;;17.80;99.90;;;;;;5054426;28;19924;-87
2022/08/10 06:40:24;;;;;;;;;;;18.40;99.90;;;;;;5103441;28;19930;-88
2022/08/10 06:43:15;;;;;;;;;;;18.00;99.90;;;;;;5065257;28;19936;-87
2022/08/10 06:46:15;;;;;;;;;;;18.00;99.90;;;;;;5067411;28;19924;-87
2022/08/10 06:48:49;;;;;;;;;;;18.20;99.90;;;;;;5074888;28;19986;-87
2022/08/10 06:54:42;;;;;;;;;;;18.40;99.90;;;;;;5071699;28;19924;-88
2022/08/10 06:57:37;;;;;;;;;;;19.00;99.90;;;;;;5054540;28;19924;-87
2022/08/10 07:00:23;;;;;;;;;;;18.50;99.90;;;;;;5054207;28;19935;-87
2022/08/10 07:04:00;;;;;;;;;;;18.30;99.90;;;;;;5075943;28;20273;-86
2022/08/10 07:07:45;;;;;;;;;;;18.50;99.90;;;;;;5017932;28;19925;-86
2022/08/10 07:21:00;;;;;;;;;;;19.10;99.90;;;;;;5041766;28;19925;-87
2022/08/10 07:23:44;;;;;;;;;;;17.30;99.90;;;;;;5070092;28;19947;-86
2022/08/10 07:27:05;;;;;;;;;;;20.40;99.90;;;;;;5088764;28;20332;-87
2022/08/10 07:29:47;;;;;;;;;;;18.00;99.90;;;;;;5056671;28;19924;-87
2022/08/10 07:32:48;;;;;;;;;;;20.70;99.90;;;;;;5089968;28;19931;-87
2022/08/10 07:35:26;;;;;;;;;;;19.40;99.90;;;;;;5074116;28;19924;-87
2022/08/10 07:38:30;;;;;;;;;;;19.40;99.90;;;;;;5057816;28;19913;-86
2022/08/10 07:41:57;;;;;;;;;;;19.70;99.90;;;;;;5080171;28;19924;-87
2022/08/10 07:45:01;;;;;;;;;;;20.00;99.90;;;;;;5058480;28;19930;-87
2022/08/10 07:48:16;;;;;;;;;;;19.60;99.90;;;;;;5071935;28;19923;-88
2022/08/10 07:51:00;;;;;;;;;;;18.20;99.90;;;;;;5073550;28;19930;-87
2022/08/10 07:53:58;;;;;;;;;;;19.80;99.90;;;;;;5055129;28;19935;-88
2022/08/10 07:56:42;;;;;;;;;;;20.20;99.90;;;;;;5090449;28;19924;-88
2022/08/10 07:59:34;;;;;;;;;;;20.30;99.90;;;;;;5075193;28;19924;-86
2022/08/10 08:02:54;;;;;;;;;;;19.30;99.90;;;;;;5074601;28;19925;-87
2022/08/10 08:05:26;;;;;;;;;;;20.10;99.90;;;;;;5054910;28;19925;-87
2022/08/10 08:08:25;;;;;;;;;;;20.50;99.90;;;;;;5070668;28;19936;-87
2022/08/10 08:10:59;;;;;;;;;;;20.60;99.90;;;;;;5088892;28;19924;-87
2022/08/10 08:14:00;;;;;;;;;;;20.70;99.90;;;;;;5060632;28;19928;-87
2022/08/10 08:16:31;;;;;;;;;;;20.90;99.90;;;;;;5052374;28;19925;-85
2022/08/10 08:19:04;;;;;;;;;;;20.90;99.90;;;;;;5033647;28;19925;-86
2022/08/10 08:21:55;;;;;;;;;;;23.60;99.90;;;;;;5064809;28;19935;-87
2022/08/10 08:24:48;;;;;;;;;;;21.10;99.90;;;;;;5031169;28;19932;-87
2022/08/10 08:27:22;;;;;;;;;;;21.30;99.60;;;;;;5044771;28;19935;-88
2022/08/10 08:29:55;;;;;;;;;;;21.30;99.40;;;;;;5051369;28;19931;-87
2022/08/10 08:32:26;;;;;;;;;;;21.40;99.30;;;;;;5053645;28;19924;-88
2022/08/10 08:34:57;;;;;;;;;;;22.50;99.40;;;;;;5050276;28;20488;-87
2022/08/10 08:37:52;;;;;;;;;;;;;;;;;;;;;
2022/08/10 08:41:20;;;;;;;;;;;21.60;98.80;;;;;;5033922;28;19931;-85
2022/08/10 08:44:11;;;;;;;;;;;20.70;98.50;;;;;;5050239;28;19953;-88
2022/08/10 08:47:18;;;;;;;;;;;21.80;99.00;;;;;;5033021;28;19925;-88
2022/08/10 08:50:42;;;;;;;;;;;20.90;98.00;;;;;;5050995;28;19935;-87
2022/08/10 08:53:23;;;;;;;;;;;21.00;97.50;;;;;;5047856;28;19931;-87
2022/08/10 08:56:27;;;;;;;;;;;22.20;97.50;;;;;;5043870;28;19924;-87
2022/08/10 08:59:17;;;;;;;;;;;22.40;97.30;;;;;;5032235;28;20399;-85
2022/08/10 09:02:30;;;;;;;;;;;22.70;97.40;;;;;;5018306;28;19935;-86
2022/08/10 09:05:44;;;;;;;;;;;22.60;97.00;;;;;;5040405;28;19929;-88
2022/08/10 09:08:31;;;;;;;;;;;22.60;96.70;;;;;;5049011;28;19925;-87
2022/08/10 09:11:00;;;;;;;;;;;22.70;96.80;;;;;;5033201;28;19939;-87
2022/08/10 09:13:58;;;;;;;;;;;22.80;96.50;;;;;;5070768;28;19925;-87
2022/08/10 09:16:42;;;;;;;;;;;23.20;96.30;;;;;;5069276;28;20289;-85
2022/08/10 09:19:35;;;;;;;;;;;22.90;96.10;;;;;;5052240;28;19930;-86
2022/08/10 09:22:41;;;;;;;;;;;23.20;95.70;;;;;;5068972;28;19938;-88
2022/08/10 09:25:56;;;;;;;;;;;23.20;95.50;;;;;;5061672;28;19934;-87
2022/08/10 09:28:26;;;;;;;;;;;23.30;95.60;;;;;;5072544;28;20385;-85
2022/08/10 09:31:53;;;;;;;;;;;23.90;95.40;;;;;;5095422;28;19924;-88
2022/08/10 09:34:58;;;;;;;;;;;24.00;95.40;;;;;;5072001;28;19935;-88
2022/08/10 09:38:09;;;;;;;;;;;23.70;94.90;;;;;;5057440;28;19999;-86
2022/08/10 09:41:03;;;;;;;;;;;23.80;94.70;;;;;;5069785;28;19924;-87
2022/08/10 09:44:17;;;;;;;;;;;24.30;93.70;;;;;;5062464;28;19928;-85
2022/08/10 09:46:53;;;;;;;;;;;24.20;93.20;;;;;;5068903;28;19935;-84
2022/08/10 09:49:30;;;;;;;;;;;24.10;92.40;;;;;;5089227;28;19931;-89
2022/08/10 09:52:50;;;;;;;;;;;24.20;93.00;;;;;;5090664;28;19935;-87
2022/08/10 09:56:13;;;;;;;;;;;24.90;92.10;;;;;;5095293;28;19924;-85
2022/08/10 09:59:09;;;;;;;;;;;25.40;92.30;;;;;;5106893;28;19924;-86
2022/08/10 10:02:32;;;;;;;;;;;23.40;90.60;;;;;;5089159;28;19934;-85
2022/08/10 10:05:24;;;;;;;;;;;24.90;90.60;;;;;;5064995;28;20420;-85
2022/08/10 10:08:52;;;;;;;;;;;23.80;89.20;;;;;;5056638;28;19924;-84
2022/08/10 10:11:47;;;;;;;;;;;25.30;89.80;;;;;;5084683;28;19924;-84
2022/08/10 10:18:11;;;;;;;;;;;24.80;88.40;;;;;;5051782;28;19925;-86
2022/08/10 10:21:12;;;;;;;;;;;;;;;;;;;;;
2022/08/10 10:24:09;;;;;;;;;;;25.50;88.00;;;;;;5054409;28;19928;-86
2022/08/10 10:27:35;;;;;;;;;;;24.50;88.00;;;;;;5082361;28;19934;-87
2022/08/10 10:30:13;;;;;;;;;;;23.50;85.60;;;;;;5054395;28;19931;-88
2022/08/10 10:33:13;;;;;;;;;;;26.00;89.60;;;;;;5070196;28;19928;-86
2022/08/10 10:40:15;;;;;;;;;;;25.90;89.90;;;;;;5087616;28;19934;-87
2022/08/10 10:43:27;;;;;;;;;;;25.30;84.90;;;;;;5083615;28;19954;-85
2022/08/10 10:53:17;;;;;;;;;;;25.30;82.20;;;;;;5065369;28;19925;-84
2022/08/10 10:56:54;;;;;;;;;;;25.30;79.80;;;;;;5053510;28;19928;-88
2022/08/10 10:59:47;;;;;;;;;;;26.30;80.90;;;;;;5043945;28;19925;-86
2022/08/10 11:06:37;;;;;;;;;;;26.50;79.70;;;;;;5083847;28;19925;-86
2022/08/10 11:09:51;;;;;;;;;;;26.90;79.70;;;;;;5067678;28;19931;-87
2022/08/10 11:13:20;;;;;;;;;;;27.40;79.80;;;;;;5083614;28;20290;-85
2022/08/10 11:16:36;;;;;;;;;;;28.00;81.40;;;;;;5008722;28;19926;-86
2022/08/10 11:19:47;;;;;;;;;;;;;;;;;;;;;
2022/08/10 11:23:14;;;;;;;;;;;;;;;;;;;;;
2022/08/10 11:26:10;;;;;;;;;;;27.60;80.60;;;;;;5020974;28;19936;-84
2022/08/10 11:29:04;;;;;;;;;;;27.90;81.10;;;;;;5020286;28;19936;-86
2022/08/10 11:32:01;;;;;;;;;;;28.10;80.60;;;;;;5021966;28;19929;-87
2022/08/10 11:35:11;;;;;;;;;;;28.00;79.30;;;;;;5046447;28;19990;-86
2022/08/10 11:37:56;;;;;;;;;;;;;;;;;;;;;
2022/08/10 11:41:15;;;;;;;;;;;28.40;79.00;;;;;;5069558;28;19991;-86
2022/08/10 11:44:12;;;;;;;;;;;28.50;78.30;;;;;;5057203;28;19934;-86
2022/08/10 11:46:49;;;;;;;;;;;28.50;77.90;;;;;;5051826;28;19928;-87
2022/08/10 11:49:49;;;;;;;;;;;24.60;75.00;;;;;;5039409;28;19932;-86
2022/08/10 11:53:00;;;;;;;;;;;28.90;76.50;;;;;;5084888;28;19931;-87
2022/08/10 11:55:51;;;;;;;;;;;28.70;75.30;;;;;;5049425;28;20664;-85
2022/08/10 12:02:08;;;;;;;;;;;29.20;72.70;;;;;;5033137;28;19925;-85
2022/08/10 12:04:50;;;;;;;;;;;29.20;73.70;;;;;;5049192;28;19925;-86
2022/08/10 12:07:20;;;;;;;;;;;31.50;75.80;;;;;;5066782;28;20397;-84
2022/08/10 12:10:20;;;;;;;;;;;29.30;72.80;;;;;;5064022;28;19925;-86
2022/08/10 12:16:34;;;;;;;;;;;27.00;69.40;;;;;;5067058;28;19936;-85
2022/08/10 12:19:42;;;;;;;;;;;29.40;69.50;;;;;;5089146;28;19935;-86
2022/08/10 12:23:00;;;;;;;;;;;;;;;;;;;;;
2022/08/10 12:25:52;;;;;;;;;;;29.60;69.30;;;;;;5059758;28;19938;-84
2022/08/10 12:28:52;;;;;;;;;;;29.50;69.40;;;;;;5065372;28;19928;-87
2022/08/10 12:31:54;;;;;;;;;;;29.60;70.50;;;;;;5078631;28;19913;-83
2022/08/10 12:35:22;;;;;;;;;;;29.90;68.20;;;;;;5069537;28;19931;-86
2022/08/10 12:37:53;;;;;;;;;;;29.70;67.50;;;;;;5086808;28;19928;-87
2022/08/10 12:40:27;;;;;;;;;;;29.80;69.40;;;;;;5044390;28;20378;-85
2022/08/10 12:48:01;;;;;;;;;;;29.20;66.60;;;;;;5105405;28;20365;-85
2022/08/10 12:50:56;;;;;;;;;;;31.00;67.80;;;;;;5086292;28;19931;-83
2022/08/10 12:53:39;;;;;;;;;;;29.90;67.20;;;;;;5087814;28;20725;-86
2022/08/10 12:56:50;;;;;;;;;;;29.90;66.90;;;;;;5079489;28;19924;-85
2022/08/10 12:59:26;;;;;;;;;;;30.10;64.90;;;;;;5064197;28;19924;-85
2022/08/10 13:05:20;;;;;;;;;;;28.20;64.30;;;;;;5108341;28;19924;-87
2022/08/10 13:12:47;;;;;;;;;;;30.20;65.50;;;;;;5084584;28;19935;-85
2022/08/10 13:16:17;;;;;;;;;;;30.50;66.10;;;;;;4998464;28;19933;-85
2022/08/10 13:19:05;;;;;;;;;;;29.70;66.20;;;;;;5005823;28;19932;-85
2022/08/10 13:25:26;;;;;;;;;;;30.60;66.80;;;;;;4910753;29;19927;-85
2022/08/10 13:27:57;;;;;;;;;;;30.70;65.40;;;;;;4895449;29;19931;-84
2022/08/10 13:30:29;;;;;;;;;;;29.80;66.30;;;;;;4948453;28;20317;-87
2022/08/10 13:33:26;;;;;;;;;;;31.00;65.40;;;;;;4970060;28;20590;-87
2022/08/10 13:36:39;;;;;;;;;;;30.40;64.50;;;;;;4976208;28;19926;-86
2022/08/10 13:39:52;;;;;;;;;;;29.90;64.10;;;;;;4990968;28;19926;-87
2022/08/10 13:42:35;;;;;;;;;;;32.90;67.50;;;;;;4997808;28;19925;-87
2022/08/10 13:45:33;;;;;;;;;;;31.50;66.50;;;;;;5008686;28;19925;-86
2022/08/10 13:48:44;;;;;;;;;;;30.90;66.20;;;;;;5010924;28;19925;-85
2022/08/10 13:51:42;;;;;;;;;;;30.90;63.50;;;;;;5023343;28;19926;-85
2022/08/10 13:54:36;;;;;;;;;;;30.20;63.10;;;;;;5082431;28;19943;-89
2022/08/10 13:57:28;;;;;;;;;;;31.60;64.40;;;;;;5083475;28;19931;-86
2022/08/10 14:00:25;;;;;;;;;;;30.40;62.30;;;;;;5056486;28;19924;-88
2022/08/10 14:03:19;;;;;;;;;;;32.00;63.80;;;;;;5101639;28;19966;-85
2022/08/10 14:06:10;;;;;;;;;;;;;;;;;;;;;
2022/08/10 14:09:25;;;;;;;;;;;34.10;63.60;;;;;;5072981;28;19947;-86
2022/08/10 14:12:08;;;;;;;;;;;32.40;63.40;;;;;;5073235;28;19924;-87
2022/08/10 14:14:50;;;;;;;;;;;32.80;61.10;;;;;;5084965;28;19925;-86
2022/08/10 14:17:31;;;;;;;;;;;33.00;61.10;;;;;;5052138;28;19935;-87
2022/08/10 14:20:18;;;;;;;;;;;34.20;62.10;;;;;;5073683;28;19934;-86
2022/08/10 14:26:44;;;;;;;;;;;33.30;59.70;;;;;;4985914;28;19938;-86
2022/08/10 14:29:44;;;;;;;;;;;31.70;58.80;;;;;;4984790;28;19934;-86
2022/08/10 14:32:24;;;;;;;;;;;31.20;57.30;;;;;;4967908;28;19927;-86
2022/08/10 14:35:10;;;;;;;;;;;33.30;60.90;;;;;;4981604;28;19969;-86
2022/08/10 14:38:11;;;;;;;;;;;33.80;59.90;;;;;;4985312;28;19937;-87
2022/08/10 14:40:59;;;;;;;;;;;33.90;57.80;;;;;;5003758;28;19990;-89
2022/08/10 14:43:51;;;;;;;;;;;34.10;58.00;;;;;;5007572;28;19924;-85
2022/08/10 14:46:32;;;;;;;;;;;32.90;56.80;;;;;;5082644;28;19924;-85
2022/08/10 14:49:21;;;;;;;;;;;34.70;57.90;;;;;;5084349;28;19928;-86
2022/08/10 14:52:10;;;;;;;;;;;34.60;58.20;;;;;;5103437;28;19931;-91
2022/08/10 14:55:06;;;;;;;;;;;34.80;57.30;;;;;;5074256;28;19924;-86
2022/08/10 14:57:54;;;;;;;;;;;34.60;58.50;;;;;;5089140;28;20397;-84
2022/08/10 15:00:46;;;;;;;;;;;34.70;59.30;;;;;;5071601;28;19940;-85
2022/08/10 15:03:46;;;;;;;;;;;34.90;58.20;;;;;;5076216;28;19931;-85
2022/08/10 15:06:55;;;;;;;;;;;36.70;57.20;;;;;;5098455;28;19946;-85
2022/08/10 15:09:28;;;;;;;;;;;35.10;56.00;;;;;;5055064;28;19924;-81
2022/08/10 15:12:29;;;;;;;;;;;35.30;56.40;;;;;;5074945;28;19928;-84
2022/08/10 15:15:39;;;;;;;;;;;36.00;57.00;;;;;;5076888;28;19928;-83
2022/08/10 15:18:53;;;;;;;;;;;36.00;55.20;;;;;;5063418;28;19944;-85
2022/08/10 15:21:34;;;;;;;;;;;34.10;53.80;;;;;;5061812;28;19924;-84
2022/08/10 15:27:52;;;;;;;;;;;36.10;54.60;;;;;;5065698;28;19950;-85
2022/08/10 15:30:55;;;;;;;;;;;35.90;53.90;;;;;;5069858;28;19929;-82
2022/08/10 15:41:10;;;;;;;;;;;36.60;54.30;;;;;;5016691;28;19936;-86
2022/08/10 15:44:41;;;;;;;;;;;36.80;54.10;;;;;;5070554;28;20208;-86
2022/08/10 15:47:20;;;;;;;;;;;36.20;52.70;;;;;;5070228;28;19982;-84
2022/08/10 15:50:28;;;;;;;;;;;36.40;55.30;;;;;;5056860;28;19948;-85
2022/08/10 15:53:05;;;;;;;;;;;36.20;53.80;;;;;;5104119;28;19939;-86
2022/08/10 15:55:54;;;;;;;;;;;36.10;54.00;;;;;;5067771;28;19943;-85
2022/08/10 15:58:43;;;;;;;;;;;36.20;53.10;;;;;;5083070;28;20320;-84
2022/08/10 16:02:08;;;;;;;;;;;35.90;55.10;;;;;;5059818;28;19934;-83
2022/08/10 16:05:43;;;;;;;;;;;36.20;53.00;;;;;;5057730;28;19950;-84
2022/08/10 16:12:57;;;;;;;;;;;37.00;53.30;;;;;;5042344;28;20289;-84
2022/08/10 16:16:08;;;;;;;;;;;36.20;52.80;;;;;;5003968;28;20068;-83
2022/08/10 16:19:17;;;;;;;;;;;36.30;53.90;;;;;;5024170;28;19936;-86
2022/08/10 16:23:03;;;;;;;;;;;34.30;51.70;;;;;;4929041;29;19937;-87
2022/08/10 16:26:25;;;;;;;;;;;36.90;55.70;;;;;;4958429;28;19945;-84
2022/08/10 16:29:31;;;;;;;;;;;36.60;53.40;;;;;;4968735;28;19937;-85
2022/08/10 16:32:53;;;;;;;;;;;;;;;;;;;;;
2022/08/10 16:35:51;;;;;;;;;;;35.90;52.80;;;;;;4972980;28;19927;-88
2022/08/10 16:39:26;;;;;;;;;;;36.80;53.30;;;;;;5019029;28;19924;-86
2022/08/10 16:42:36;;;;;;;;;;;36.00;52.80;;;;;;5084425;28;19943;-84
2022/08/10 16:52:36;;;;;;;;;;;36.70;53.20;;;;;;5085638;28;19924;-87
2022/08/10 16:55:25;;;;;;;;;;;36.30;52.80;;;;;;5070393;28;19925;-85
2022/08/10 16:58:51;;;;;;;;;;;36.70;53.20;;;;;;5074402;28;19934;-87
2022/08/10 17:05:28;;;;;;;;;;;37.00;54.10;;;;;;5075661;28;19928;-88
2022/08/10 17:08:28;;;;;;;;;;;35.30;52.60;;;;;;5042397;28;19931;-87
2022/08/10 17:11:09;;;;;;;;;;;36.10;53.90;;;;;;5072853;28;19924;-85
2022/08/10 17:14:01;;;;;;;;;;;35.80;54.20;;;;;;5101029;28;19928;-87
2022/08/10 17:21:27;;;;;;;;;;;36.20;55.60;;;;;;5043571;28;19940;-87
2022/08/10 17:25:07;;;;;;;;;;;36.30;54.30;;;;;;4959505;28;19926;-86
2022/08/10 17:33:15;;;;;;;;;;;35.60;54.50;;;;;;4889420;29;19927;-86
2022/08/10 17:40:14;;;;;;;;;;;36.10;55.00;;;;;;4872655;29;19938;-88
2022/08/10 17:44:17;;;;;;;;;;;35.80;56.20;;;;;;4965421;28;20062;-87
2022/08/10 17:50:58;;;;;;;;;;;35.40;54.60;;;;;;4959990;28;20047;-85
2022/08/10 17:54:45;;;;;;;;;;;36.40;56.40;;;;;;4961198;29;19931;-86
2022/08/10 17:57:20;;;;;;;;;;;35.30;55.20;;;;;;4947458;29;19915;-86
2022/08/10 17:59:56;;;;;;;;;;;34.40;54.80;;;;;;4965867;28;19926;-87
2022/08/10 18:03:38;;;;;;;;;;;33.00;54.10;;;;;;4981587;28;19956;-88
2022/08/10 18:11:28;;;;;;;;;;;30.10;53.40;;;;;;4893395;29;19949;-87
2022/08/10 18:14:30;;;;;;;;;;;31.70;56.80;;;;;;4903244;29;19932;-88
2022/08/10 18:18:00;;;;;;;;;;;30.90;58.50;;;;;;4899040;29;19942;-86
2022/08/10 18:21:30;;;;;;;;;;;29.90;59.70;;;;;;4892598;29;19934;-88
2022/08/10 18:24:38;;;;;;;;;;;29.30;61.10;;;;;;4945866;29;19934;-89
2022/08/10 18:27:13;;;;;;;;;;;28.70;61.50;;;;;;4966784;28;19993;-86
2022/08/10 18:30:42;;;;;;;;;;;29.00;63.60;;;;;;4987803;28;19929;-86
2022/08/10 18:34:15;;;;;;;;;;;28.70;62.90;;;;;;5000230;28;19932;-87
2022/08/10 18:37:10;;;;;;;;;;;28.00;65.30;;;;;;4991554;28;19925;-85
2022/08/10 18:40:22;;;;;;;;;;;;;;;;;;;;;
2022/08/10 18:43:36;;;;;;;;;;;27.40;65.80;;;;;;4967984;28;19925;-88
2022/08/10 18:50:53;;;;;;;;;;;27.40;66.90;;;;;;4986772;28;19925;-87
2022/08/10 18:54:07;;;;;;;;;;;26.50;67.80;;;;;;4891693;29;19938;-85
2022/08/10 18:57:20;;;;;;;;;;;26.10;67.70;;;;;;4922933;29;19927;-87
2022/08/10 19:00:10;;;;;;;;;;;26.30;67.90;;;;;;4923104;28;19937;-86
2022/08/10 19:03:14;;;;;;;;;;;26.40;69.20;;;;;;4923698;29;20023;-85
2022/08/10 19:07:38;;;;;;;;;;;26.40;68.40;;;;;;4876459;29;19936;-88
2022/08/10 19:15:31;;;;;;;;;;;26.00;70.80;;;;;;4866407;29;19942;-84
2022/08/10 19:18:31;;;;;;;;;;;25.80;70.40;;;;;;4884402;28;19931;-87
2022/08/10 19:22:01;;;;;;;;;;;24.70;69.10;;;;;;4969000;28;19929;-86
2022/08/10 19:25:30;;;;;;;;;;;25.40;72.80;;;;;;5067045;28;19924;-86
2022/08/10 19:29:14;;;;;;;;;;;25.40;73.90;;;;;;5000275;28;19935;-85
2022/08/10 19:32:20;;;;;;;;;;;25.30;71.50;;;;;;5006059;28;19932;-86
2022/08/10 19:39:12;;;;;;;;;;;25.20;74.50;;;;;;4992527;28;19926;-85
2022/08/10 19:42:00;;;;;;;;;;;25.10;73.60;;;;;;5006847;28;19925;-85
2022/08/10 19:45:49;;;;;;;;;;;;;;;;;;;;;
2022/08/10 19:52:18;;;;;;;;;;;25.60;76.10;;;;;;5092456;28;19935;-85
2022/08/10 19:55:27;;;;;;;;;;;24.00;76.60;;;;;;5062568;28;19924;-87
2022/08/10 20:02:51;;;;;;;;;;;24.40;78.10;;;;;;5109228;28;19939;-86
2022/08/10 20:06:51;;;;;;;;;;;24.60;81.80;;;;;;5011584;28;19933;-86
2022/08/10 20:10:10;;;;;;;;;;;21.90;79.00;;;;;;5060482;28;19924;-86
2022/08/10 20:13:17;;;;;;;;;;;;;;;;;;;;;
2022/08/10 20:19:52;;;;;;;;;;;23.30;79.00;;;;;;4914523;29;19926;-86
2022/08/10 20:23:41;;;;;;;;;;;;;;;;;;;;;
2022/08/10 20:27:52;;;;;;;;;;;24.20;79.60;;;;;;4914501;29;20635;-86
2022/08/10 20:34:46;;;;;;;;;;;22.00;79.50;;;;;;4976955;28;19925;-85
2022/08/10 20:38:26;;;;;;;;;;;22.20;79.90;;;;;;4932740;29;19927;-84
2022/08/10 20:42:01;;;;;;;;;;;;;;;;;;;;;
2022/08/10 20:45:32;;;;;;;;;;;23.00;79.50;;;;;;4914143;29;20431;-86
2022/08/10 20:49:09;;;;;;;;;;;23.50;80.20;;;;;;4933879;29;19934;-85
2022/08/10 20:56:01;;;;;;;;;;;23.90;83.30;;;;;;4999421;28;19940;-84
2022/08/10 20:58:59;;;;;;;;;;;23.50;82.00;;;;;;5047009;28;19925;-84
2022/08/10 21:02:18;;;;;;;;;;;23.20;82.20;;;;;;5074340;28;19930;-85
2022/08/10 21:06:03;;;;;;;;;;;23.30;81.40;;;;;;5103725;28;20022;-85
2022/08/10 21:09:18;;;;;;;;;;;;;;;;;;;;;
2022/08/10 21:12:31;;;;;;;;;;;22.90;84.30;;;;;;5104779;28;19934;-85
2022/08/10 21:15:33;;;;;;;;;;;23.20;84.00;;;;;;5103731;28;19925;-86
2022/08/10 21:18:21;;;;;;;;;;;22.60;83.30;;;;;;5017214;28;19925;-86
2022/08/10 21:21:43;;;;;;;;;;;20.90;84.50;;;;;;5044454;28;19929;-86
2022/08/10 21:24:49;;;;;;;;;;;20.90;83.30;;;;;;4989896;28;19930;-87
2022/08/10 23:03:48;;;;;;;;;;;20.70;92.20;;;;;;4945484;29;20005;-87
2022/08/10 23:07:16;;;;;;;;;;;19.40;92.00;;;;;;4963834;29;19926;-86
2022/08/10 23:10:20;;;;;;;;;;;;;;;;;;;;;
2022/08/10 23:14:06;;;;;;;;;;;20.90;92.50;;;;;;5083792;28;19930;-86
2022/08/10 23:20:01;;;;;;;;;;;20.50;93.20;;;;;;5051622;28;19929;-86
2022/08/10 23:26:37;;;;;;;;;;;;;;;;;;;;;